• Join FlightAware (Why Join?)
  • Login
  • US Flag 
06:06PM EDT


 

Airport Tracker/Info


-or-


 

Live Flight TrackerFlight Track Log ✈ PDT4314 ✈ 25-Aug-2013 ✈ KBGM - KPHL

Flight Track Log - Related Links

Times and Time Zones

All times are in EDT time to prevent confusion due to time zone crossing. See the PDT4314 flight status page for this flight to view local times or setup timezone preferences in your user account.

Time Position Orientation Groundspeed Altitude Reporting Facility
EDT Latitude Longitude Course Direction KTS MPH feet Rate Location/Type
07:48PM 41.8528 -75.8637 180° South  Level Estimated
07:49PM 41.7984 -75.9006 207° Southwest  Level FlightAware Approximate
07:50PM 41.7394 -75.8798 154° Southeast  Level Estimated
07:51PM 41.6804 -75.8590 160° South  Level Estimated
07:52PM 41.6214 -75.8383 159° South  Level Estimated
07:53PM 41.5620 -75.8195 167° South  Level FlightAware Approximate
07:54PM 41.5030 -75.7988 153° Southeast  Level Estimated
07:55PM 41.4440 -75.7781 161° South  Level Estimated
07:56PM 41.3874 -75.7478 158° South  Level FlightAware Approximate
07:57PM 41.3308 -75.7175 158° South  Level FlightAware Approximate
07:58PM 41.2716 -75.6978 162° South  Level Estimated
07:59PM 41.2143 -75.6700 160° South  Level FlightAware Approximate
08:00PM 41.1570 -75.6423 160° South  Level FlightAware Approximate
08:01PM 41.0996 -75.6146 160° South  Level FlightAware Approximate
08:02PM 41.0423 -75.5870 160° South  Level FlightAware Approximate
08:03PM 40.9828 -75.5691 159° South  Level Estimated
08:04PM 40.9233 -75.5512 163° South  Level Estimated
08:05PM 40.8661 -75.5231 160° South  Level FlightAware Approximate
08:06PM 40.8089 -75.4951 160° South  Level FlightAware Approximate
08:07PM 40.7517 -75.4671 160° South  Level FlightAware Approximate
08:08PM 40.6918 -75.4515 190° South  Level Estimated
08:08PM 40.5500 -75.6167 204° Southwest 263 303 5,500  Level Philadelphia TRACON
08:09PM 40.6319 -75.4667 191° South  Level FlightAware Approximate
08:10PM 40.5720 -75.4818 191° South  Level FlightAware Approximate
08:10PM 40.4500 -75.6000 173° South 252 290 5,000  Level Philadelphia TRACON
08:11PM 40.5131 -75.4613 187° South  Level Estimated
08:11PM 40.4000 -75.5500 143° Southeast 249 287 5,000  Level Philadelphia TRACON
08:12PM 40.4559 -75.4893 200° South  Level FlightAware Approximate
08:12PM 40.3333 -75.5000 150° Southeast 248 285 5,000  Level Philadelphia TRACON
08:13PM 40.3979 -75.4644 190° South  Level Estimated
08:13PM 40.2833 -75.4500 143° Southeast 248 285 5,000  Level Philadelphia TRACON
08:14PM 40.3377 -75.4993 204° Southwest  Level FlightAware Approximate
08:14PM 40.2333 -75.3833 134° Southeast 254 292 4,200  Level Philadelphia TRACON
08:15PM 40.1667 -75.3333 150° Southeast 254 292 4,000 -120 Descending Philadelphia TRACON
08:16PM 40.1167 -75.2833 143° Southeast 224 258 4,000 -300 Level Philadelphia TRACON
08:17PM 40.0667 -75.2333 143° Southeast 225 259 3,500 -540 Descending Philadelphia TRACON
08:18PM 40.0333 -75.1667 123° Southeast 205 236 3,000 -300 Descending Philadelphia TRACON
08:19PM 40.0167 -75.1000 108° East 206 237 3,000  Level Philadelphia TRACON
08:20PM 40.0000 -75.0500 114° Southeast 208 239 3,000 -120 Level Philadelphia TRACON
08:21PM 39.9500 -75.0167 153° Southeast 170 196 2,800 -300 Descending Philadelphia TRACON
08:22PM 39.9333 -75.0833 252° West 157 181 2,400 -720 Descending Philadelphia TRACON
08:23PM 39.9167 -75.1333 247° West 144 166 1,400 -780 Descending Philadelphia TRACON
08:24PM 39.9000 -75.1667 237° Southwest 97 112 800 -600 Descending Philadelphia TRACON
08:25PM 39.8833 -75.2000 237° Southwest 94 108 300 -540 Descending Philadelphia TRACON